Accueil
METAR-TAF:

METAR-TAF

Aéroports :

Shawbury, Angleterre

latitude: 52-48N, longitude: 002-40W, altitude: 76 m

Observation

Le bulletin a été fait il y a 25 minutes, à 14:50 UTC
Vent 20 kt de ouest avec des rafales jusqu'à 32 kt
Température 14°C
Humidité 67%
Pression 1009 hPa
Visibilité 10 km ou plus
Quelques nuages à une hauteur de 2200 ft, Cumulonimbus.

METAR: EGOS 211450Z 27020G32KT 9999 FEW022CB 14/08 Q1009 BLU NOSIG

Heure: 16:15 (15:15 UTC)

Prévision

Le bulletin a été fait il y a 1 heure et 27 minutes, à 13:48 UTC
Prévision valable du 21 à 15 UTC au 21 à 18 UTC
Vent 16 kt de ouest avec des rafales jusqu'à 26 kt
Visibilité 10 km ou plus
Nuages épars à une hauteur de 3000 ft
Temporairement
du 21 à 15 UTC au 21 à 17 UTC
Visibilité: 6000 m
Nuages épars à une hauteur de 2200 ft, Cumulonimbus.
averses de pluie

TAF: EGOS 211348Z 2115/2118 26016G26KT 9999 SCT030 TEMPO 2115/2117 6000 SHRA SCT022CB

Observations et prévisions météorologiques de plus de 4000 aéroports (messages METAR et TAF).

Les stations disponibles sont représentées par des disques jaunes et rouges sur la carte.

Passer la souris dessus pour voir le nom de la station.

Cliquer dessus pour voir les observations et prévisions météorologiques.

Pour changer de carte: cliquez sur les boutons verts avec une croix noire pour zoomer, sur le bouton vert avec un tiret pour effectuer un zoom arrière, ou sur les flèches vertes pour les cartes adjacentes.


METAR-TAF: